»·PEaware :: DFGCW 0ID2-KGTF

DFGCW :: 0ID2-KGTF

FLIGHT INFORMATION

Flight Status: Arrived
Operator: Unknown
More flights by this operator :: More flights under this callsign
Pilot: Klaus A. (15485)
Aircraft: PILATUS PC-12 EAGLE
(PC12)
More flights by this aircraft type
Origin: 0ID2 Flying Joseph Ranch Airport
United States
Destination: KGTF Great Falls Intl
United States
More flights between these airports :: More routes between these airports
Route: HLN GTF
File this flight plan on PilotEdge
Remarks: / L Custom weather
Altitude:
(Current/Filed)
13,500ft
Speed:
(Current/Filed)
230kts
Departed: 23-Aug-18 08:05 AM
Arrived: 23-Aug-18 09:05 AM
Distance/Time
Traveled:
208nm/1:00
Distance/Time
To Go:
Arrived

Flight Plot

Page will automatically refresh every two minutes.

Flight plan parsing failed; only flown route is shown


Map Options




Map Legend


Flown Route
Filed Route
Departure Airport
Arrival Airport
Navaid (VOR, NDB)
Fix

Horizontal Profiles

Position Reports

Time Latitude Longitude Heading Altitude Ground
Speed
23-Aug-18 07:55 44.440157 -113.770687 34 5605ft 0kts
23-Aug-18 07:56 44.440157 -113.770687 34 5605ft 0kts
23-Aug-18 07:57 44.440157 -113.770687 34 5605ft 0kts
23-Aug-18 07:58 44.440157 -113.770687 34 5605ft 0kts
23-Aug-18 07:59 44.440161 -113.770684 33 5605ft 0kts
23-Aug-18 08:00 44.440161 -113.770684 33 5605ft 0kts
23-Aug-18 08:01 44.440161 -113.770684 33 5605ft 0kts
23-Aug-18 08:02 44.440798 -113.770274 32 5605ft 0kts
23-Aug-18 08:03 44.440276 -113.768284 124 5605ft 22kts
23-Aug-18 08:04 44.438001 -113.763963 302 5605ft 0kts
23-Aug-18 08:05 44.438001 -113.763963 302 5605ft 0kts
23-Aug-18 08:06 44.441069 -113.769940 306 5606ft 102kts
23-Aug-18 08:07 44.463403 -113.816517 303 7782ft 139kts
23-Aug-18 08:08 44.491724 -113.822306 38 9517ft 162kts
23-Aug-18 08:09 44.513616 -113.763978 56 11334ft 179kts
23-Aug-18 08:10 44.545295 -113.693979 33 13267ft 184kts
23-Aug-18 08:11 44.585283 -113.658196 23 13513ft 230kts
23-Aug-18 08:12 44.644381 -113.610482 24 13499ft 255kts
23-Aug-18 08:13 44.707016 -113.559641 24 13468ft 263kts
23-Aug-18 08:14 44.770235 -113.508218 25 13469ft 263kts
23-Aug-18 08:15 44.833436 -113.456644 25 13467ft 262kts
23-Aug-18 08:16 44.896327 -113.405210 25 13467ft 262kts
23-Aug-18 08:17 44.959104 -113.353738 25 13467ft 261kts
23-Aug-18 08:18 45.020671 -113.303133 25 13464ft 261kts
23-Aug-18 08:19 45.083447 -113.251401 25 13464ft 261kts
23-Aug-18 08:20 45.144710 -113.200792 26 13468ft 262kts
23-Aug-18 08:21 45.207937 -113.148415 26 13422ft 264kts
23-Aug-18 08:22 45.271071 -113.095948 25 13421ft 263kts
23-Aug-18 08:23 45.334200 -113.043421 25 13422ft 262kts
23-Aug-18 08:24 45.396972 -112.991022 25 13422ft 262kts
23-Aug-18 08:25 45.459952 -112.938310 25 13422ft 262kts
23-Aug-18 08:26 45.522759 -112.885605 25 13421ft 262kts
23-Aug-18 08:27 45.585468 -112.832844 25 13421ft 262kts
23-Aug-18 08:28 45.648081 -112.780023 25 13493ft 260kts
23-Aug-18 08:29 45.710476 -112.727258 25 13509ft 262kts
23-Aug-18 08:30 45.773241 -112.674033 26 13508ft 263kts
23-Aug-18 08:31 45.836004 -112.620663 26 13508ft 262kts
23-Aug-18 08:32 45.898579 -112.567316 26 13508ft 262kts
23-Aug-18 08:33 45.961196 -112.513792 26 13508ft 262kts
23-Aug-18 08:34 46.023456 -112.460432 26 13508ft 262kts
23-Aug-18 08:35 46.085966 -112.406715 26 13508ft 262kts
23-Aug-18 08:36 46.147646 -112.353575 26 13511ft 262kts
23-Aug-18 08:37 46.209193 -112.300403 26 13502ft 263kts
23-Aug-18 08:38 46.271777 -112.246240 27 13502ft 262kts
23-Aug-18 08:39 46.334838 -112.191427 27 13383ft 264kts
23-Aug-18 08:40 46.397571 -112.136790 27 13383ft 263kts
23-Aug-18 08:41 46.460303 -112.082008 27 13383ft 263kts
23-Aug-18 08:42 46.522592 -112.027466 27 13383ft 263kts
23-Aug-18 08:43 46.585155 -111.972534 27 13382ft 263kts
23-Aug-18 08:44 46.650250 -111.926115 20 13382ft 260kts
23-Aug-18 08:45 46.714077 -111.885635 19 13373ft 233kts
23-Aug-18 08:46 46.771038 -111.849579 20 13381ft 217kts
23-Aug-18 08:47 46.825596 -111.814845 21 13381ft 212kts
23-Aug-18 08:48 46.879156 -111.780679 21 13357ft 211kts
23-Aug-18 08:49 46.936949 -111.743721 21 12269ft 231kts
23-Aug-18 08:50 46.992800 -111.707967 20 11130ft 213kts
23-Aug-18 08:51 47.046189 -111.673725 20 10021ft 209kts
23-Aug-18 08:52 47.099171 -111.639657 19 8917ft 209kts
23-Aug-18 08:53 47.151698 -111.605817 19 7843ft 211kts
23-Aug-18 08:54 47.203477 -111.572356 19 7398ft 186kts
23-Aug-18 08:55 47.252124 -111.540878 19 7334ft 196kts
23-Aug-18 08:56 47.303356 -111.507664 20 6352ft 205kts
23-Aug-18 08:57 47.356468 -111.473149 21 5361ft 210kts
23-Aug-18 08:58 47.408778 -111.440140 13 4952ft 184kts
23-Aug-18 08:59 47.455321 -111.424571 3 4955ft 167kts
23-Aug-18 09:00 47.499582 -111.417832 21 4818ft 166kts
23-Aug-18 09:01 47.533845 -111.381595 40 4617ft 136kts
23-Aug-18 09:02 47.543391 -111.335117 111 4005ft 114kts
23-Aug-18 09:03 47.528101 -111.335407 235 3876ft 99kts
23-Aug-18 09:04 47.514756 -111.348085 212 4251ft 98kts
23-Aug-18 09:05 47.499197 -111.372683 185 3813ft 86kts
23-Aug-18 09:06 47.483701 -111.372316 96 3682ft 13kts
23-Aug-18 09:07 47.483683 -111.368646 89 3682ft 0kts
23-Aug-18 09:08 47.483677 -111.366256 90 3682ft 21kts
23-Aug-18 09:09 47.483537 -111.359248 159 3682ft 12kts
23-Aug-18 09:10 47.483420 -111.358441 356 3682ft 0kts
23-Aug-18 09:11 47.483420 -111.358441 356 3681ft 0kts
23-Aug-18 09:12 47.483420 -111.358441 356 3681ft 0kts
23-Aug-18 09:13 47.483420 -111.358441 356 3681ft 0kts
23-Aug-18 09:14 47.483420 -111.358441 356 3681ft 0kts
23-Aug-18 09:15 47.483420 -111.358441 356 3681ft 0kts
23-Aug-18 09:16 47.483420 -111.358441 356 3681ft 0kts
23-Aug-18 09:17 47.483420 -111.358441 356 3681ft 0kts
23-Aug-18 09:18 47.483420 -111.358441 356 3681ft 0kts
23-Aug-18 09:19 47.483420 -111.358441 356 3681ft 0kts
23-Aug-18 09:20 47.483420 -111.358441 356 3681ft 0kts

Navigation Log

Ident Type
Flight plan parsing failed, navigation log unavailable